sensor_id;sensor_type;location;lat;lon;timestamp;P1;durP1;ratioP1;P2;durP2;ratioP2
50689;SDS011;71367;48.298;11.238;2023-11-19T00:04:54;4.85;;;2.63;;
50689;SDS011;71367;48.298;11.238;2023-11-19T00:19:58;3.80;;;2.03;;
50689;SDS011;71367;48.298;11.238;2023-11-19T00:35:02;3.10;;;1.80;;
50689;SDS011;71367;48.298;11.238;2023-11-19T00:50:08;4.00;;;1.80;;
50689;SDS011;71367;48.298;11.238;2023-11-19T01:05:13;3.33;;;1.70;;
50689;SDS011;71367;48.298;11.238;2023-11-19T01:20:17;2.47;;;1.30;;
50689;SDS011;71367;48.298;11.238;2023-11-19T01:35:22;2.17;;;1.20;;
50689;SDS011;71367;48.298;11.238;2023-11-19T01:50:26;4.25;;;1.30;;
50689;SDS011;71367;48.298;11.238;2023-11-19T02:05:31;3.00;;;1.40;;
50689;SDS011;71367;48.298;11.238;2023-11-19T02:20:35;2.97;;;1.50;;
50689;SDS011;71367;48.298;11.238;2023-11-19T02:35:40;2.53;;;1.30;;
50689;SDS011;71367;48.298;11.238;2023-11-19T02:50:44;3.35;;;1.50;;
50689;SDS011;71367;48.298;11.238;2023-11-19T03:05:50;3.42;;;1.50;;
50689;SDS011;71367;48.298;11.238;2023-11-19T03:20:54;2.30;;;1.27;;
50689;SDS011;71367;48.298;11.238;2023-11-19T03:35:59;1.80;;;1.02;;
50689;SDS011;71367;48.298;11.238;2023-11-19T03:51:08;1.98;;;1.00;;
50689;SDS011;71367;48.298;11.238;2023-11-19T04:06:12;1.20;;;0.90;;
50689;SDS011;71367;48.298;11.238;2023-11-19T04:21:18;2.08;;;0.90;;
50689;SDS011;71367;48.298;11.238;2023-11-19T04:36:23;2.05;;;1.27;;
50689;SDS011;71367;48.298;11.238;2023-11-19T04:51:27;2.92;;;1.30;;
50689;SDS011;71367;48.298;11.238;2023-11-19T05:06:31;2.03;;;1.20;;
50689;SDS011;71367;48.298;11.238;2023-11-19T05:21:37;2.10;;;1.30;;
50689;SDS011;71367;48.298;11.238;2023-11-19T05:36:41;1.63;;;1.15;;
50689;SDS011;71367;48.298;11.238;2023-11-19T05:51:46;3.05;;;1.48;;
50689;SDS011;71367;48.298;11.238;2023-11-19T06:06:50;1.83;;;1.23;;
50689;SDS011;71367;48.298;11.238;2023-11-19T06:21:57;1.77;;;1.25;;
50689;SDS011;71367;48.298;11.238;2023-11-19T06:37:01;2.28;;;1.30;;
50689;SDS011;71367;48.298;11.238;2023-11-19T06:52:06;1.90;;;1.13;;
50689;SDS011;71367;48.298;11.238;2023-11-19T07:07:10;2.40;;;1.10;;
50689;SDS011;71367;48.298;11.238;2023-11-19T07:22:17;3.30;;;1.60;;
50689;SDS011;71367;48.298;11.238;2023-11-19T07:37:24;4.32;;;1.00;;
50689;SDS011;71367;48.298;11.238;2023-11-19T07:52:28;1.52;;;0.98;;
50689;SDS011;71367;48.298;11.238;2023-11-19T08:07:33;2.50;;;0.90;;
50689;SDS011;71367;48.298;11.238;2023-11-19T08:22:38;1.23;;;0.60;;
50689;SDS011;71367;48.298;11.238;2023-11-19T08:37:43;1.20;;;0.90;;
50689;SDS011;71367;48.298;11.238;2023-11-19T08:52:52;1.85;;;1.10;;
50689;SDS011;71367;48.298;11.238;2023-11-19T09:07:56;3.08;;;1.20;;
50689;SDS011;71367;48.298;11.238;2023-11-19T09:23:00;1.45;;;0.90;;
50689;SDS011;71367;48.298;11.238;2023-11-19T09:38:04;4.43;;;1.35;;
50689;SDS011;71367;48.298;11.238;2023-11-19T09:53:10;2.22;;;1.20;;
50689;SDS011;71367;48.298;11.238;2023-11-19T10:08:14;1.38;;;0.80;;
50689;SDS011;71367;48.298;11.238;2023-11-19T10:23:22;1.67;;;0.90;;
50689;SDS011;71367;48.298;11.238;2023-11-19T10:38:36;1.10;;;0.80;;
50689;SDS011;71367;48.298;11.238;2023-11-19T10:53:41;1.60;;;0.88;;
50689;SDS011;71367;48.298;11.238;2023-11-19T11:08:48;1.35;;;0.75;;
50689;SDS011;71367;48.298;11.238;2023-11-19T11:24:02;1.45;;;0.90;;
50689;SDS011;71367;48.298;11.238;2023-11-19T11:39:27;1.55;;;0.90;;
50689;SDS011;71367;48.298;11.238;2023-11-19T11:54:34;1.10;;;0.60;;
50689;SDS011;71367;48.298;11.238;2023-11-19T12:09:40;2.03;;;1.40;;
50689;SDS011;71367;48.298;11.238;2023-11-19T12:24:45;0.70;;;0.47;;
50689;SDS011;71367;48.298;11.238;2023-11-19T12:39:51;1.05;;;0.50;;
50689;SDS011;71367;48.298;11.238;2023-11-19T12:54:56;1.08;;;0.50;;
50689;SDS011;71367;48.298;11.238;2023-11-19T13:10:02;1.30;;;0.60;;
50689;SDS011;71367;48.298;11.238;2023-11-19T13:25:07;1.95;;;0.40;;
50689;SDS011;71367;48.298;11.238;2023-11-19T13:40:21;1.85;;;0.57;;
50689;SDS011;71367;48.298;11.238;2023-11-19T13:55:27;0.85;;;0.60;;
50689;SDS011;71367;48.298;11.238;2023-11-19T14:10:31;3.17;;;0.63;;
50689;SDS011;71367;48.298;11.238;2023-11-19T14:25:34;1.27;;;0.52;;
50689;SDS011;71367;48.298;11.238;2023-11-19T14:40:40;0.40;;;0.40;;
50689;SDS011;71367;48.298;11.238;2023-11-19T14:55:46;1.10;;;0.70;;
50689;SDS011;71367;48.298;11.238;2023-11-19T15:10:50;1.35;;;0.60;;
50689;SDS011;71367;48.298;11.238;2023-11-19T15:25:55;0.80;;;0.60;;
50689;SDS011;71367;48.298;11.238;2023-11-19T15:41:00;1.17;;;0.70;;
50689;SDS011;71367;48.298;11.238;2023-11-19T15:56:05;1.70;;;0.90;;
50689;SDS011;71367;48.298;11.238;2023-11-19T16:11:09;1.63;;;0.90;;
50689;SDS011;71367;48.298;11.238;2023-11-19T16:26:14;1.33;;;0.80;;
50689;SDS011;71367;48.298;11.238;2023-11-19T16:41:19;1.83;;;1.15;;
50689;SDS011;71367;48.298;11.238;2023-11-19T16:56:24;1.10;;;0.80;;
50689;SDS011;71367;48.298;11.238;2023-11-19T17:11:27;3.83;;;1.05;;
50689;SDS011;71367;48.298;11.238;2023-11-19T17:26:31;1.63;;;0.90;;
50689;SDS011;71367;48.298;11.238;2023-11-19T17:41:35;3.70;;;1.73;;
50689;SDS011;71367;48.298;11.238;2023-11-19T17:56:38;4.22;;;1.40;;
50689;SDS011;71367;48.298;11.238;2023-11-19T18:11:42;4.15;;;1.40;;
50689;SDS011;71367;48.298;11.238;2023-11-19T18:26:46;2.42;;;1.30;;
50689;SDS011;71367;48.298;11.238;2023-11-19T18:41:50;5.38;;;1.80;;
50689;SDS011;71367;48.298;11.238;2023-11-19T18:56:53;5.07;;;2.17;;
50689;SDS011;71367;48.298;11.238;2023-11-19T19:11:59;3.55;;;1.77;;
50689;SDS011;71367;48.298;11.238;2023-11-19T19:27:02;3.10;;;1.48;;
50689;SDS011;71367;48.298;11.238;2023-11-19T19:42:06;6.47;;;1.75;;
50689;SDS011;71367;48.298;11.238;2023-11-19T19:57:11;4.70;;;1.30;;
50689;SDS011;71367;48.298;11.238;2023-11-19T20:12:20;3.00;;;1.30;;
50689;SDS011;71367;48.298;11.238;2023-11-19T20:27:23;7.15;;;1.50;;
50689;SDS011;71367;48.298;11.238;2023-11-19T20:42:27;3.28;;;1.38;;
50689;SDS011;71367;48.298;11.238;2023-11-19T20:57:32;4.60;;;1.50;;
50689;SDS011;71367;48.298;11.238;2023-11-19T21:12:36;3.97;;;1.50;;
50689;SDS011;71367;48.298;11.238;2023-11-19T21:27:41;1.98;;;1.10;;
50689;SDS011;71367;48.298;11.238;2023-11-19T21:42:46;4.80;;;1.30;;
50689;SDS011;71367;48.298;11.238;2023-11-19T21:57:49;1.77;;;1.10;;
50689;SDS011;71367;48.298;11.238;2023-11-19T22:12:53;2.05;;;1.00;;
50689;SDS011;71367;48.298;11.238;2023-11-19T22:27:58;1.90;;;0.98;;
50689;SDS011;71367;48.298;11.238;2023-11-19T22:43:02;3.40;;;1.15;;
50689;SDS011;71367;48.298;11.238;2023-11-19T22:58:06;2.00;;;0.70;;
50689;SDS011;71367;48.298;11.238;2023-11-19T23:13:10;2.88;;;1.00;;
50689;SDS011;71367;48.298;11.238;2023-11-19T23:28:14;1.40;;;0.75;;
50689;SDS011;71367;48.298;11.238;2023-11-19T23:43:18;2.17;;;0.80;;
50689;SDS011;71367;48.298;11.238;2023-11-19T23:58:22;1.48;;;0.90;;
